Shraders, Pennsylvania
Current Conditions -  °F | °C
As of 7:53 PM on Thursday 18 Dec 2014 (Local Time) from KUNV Reporting Station
Overcast Overcast  
Wind Chill: 22°   Ceiling: 2000
Heat Index: 30°   Visibility: 10mi
Dew Point: 23°   Wind: 9mph
Humidity: 75%   Direction: 290°WNW
Pressure: 30.07"   Gusts: 20mph
Location:  40.6771°N, 77.6392°W
Report Text: KUNV 190053Z 29008G17KT 10SM OVC020 M01/M05 A3007
Loading
Personal Weather Stations






























Interactive Weather Map New forecast layout! Learn more

10-Day Weather Forecast

Advertisements
Track Severe Weather on mobile